sensor_id;sensor_type;location;lat;lon;timestamp;P1;durP1;ratioP1;P2;durP2;ratioP2
10096;SDS011;5087;42.662;23.466;2022-11-27T00:00:14;0.20;;;0.20;;
10096;SDS011;5087;42.662;23.466;2022-11-27T00:02:42;0.50;;;0.50;;
10096;SDS011;5087;42.662;23.466;2022-11-27T00:05:09;0.20;;;0.20;;
10096;SDS011;5087;42.662;23.466;2022-11-27T00:07:36;0.30;;;0.30;;
10096;SDS011;5087;42.662;23.466;2022-11-27T00:10:04;0.20;;;0.20;;
10096;SDS011;5087;42.662;23.466;2022-11-27T00:12:32;0.23;;;0.23;;
10096;SDS011;5087;42.662;23.466;2022-11-27T00:15:00;0.43;;;0.43;;
10096;SDS011;5087;42.662;23.466;2022-11-27T00:17:29;1.40;;;1.30;;
10096;SDS011;5087;42.662;23.466;2022-11-27T00:19:57;0.10;;;0.10;;
10096;SDS011;5087;42.662;23.466;2022-11-27T00:22:24;0.20;;;0.20;;
10096;SDS011;5087;42.662;23.466;2022-11-27T00:24:52;0.10;;;0.10;;
10096;SDS011;5087;42.662;23.466;2022-11-27T00:27:19;1.50;;;0.93;;
10096;SDS011;5087;42.662;23.466;2022-11-27T00:29:46;0.10;;;0.10;;
10096;SDS011;5087;42.662;23.466;2022-11-27T00:32:13;0.10;;;0.10;;
10096;SDS011;5087;42.662;23.466;2022-11-27T00:34:42;0.20;;;0.20;;
10096;SDS011;5087;42.662;23.466;2022-11-27T00:37:09;0.10;;;0.10;;
10096;SDS011;5087;42.662;23.466;2022-11-27T00:39:39;0.10;;;0.10;;
10096;SDS011;5087;42.662;23.466;2022-11-27T00:42:09;0.10;;;0.10;;
10096;SDS011;5087;42.662;23.466;2022-11-27T00:44:36;0.00;;;0.00;;
10096;SDS011;5087;42.662;23.466;2022-11-27T00:47:05;0.10;;;0.10;;
10096;SDS011;5087;42.662;23.466;2022-11-27T00:49:32;0.00;;;0.00;;
10096;SDS011;5087;42.662;23.466;2022-11-27T00:52:01;0.10;;;0.10;;
10096;SDS011;5087;42.662;23.466;2022-11-27T00:54:28;0.00;;;0.00;;
10096;SDS011;5087;42.662;23.466;2022-11-27T00:56:55;0.10;;;0.10;;
10096;SDS011;5087;42.662;23.466;2022-11-27T00:59:23;0.00;;;0.00;;
10096;SDS011;5087;42.662;23.466;2022-11-27T01:01:51;0.10;;;0.10;;
10096;SDS011;5087;42.662;23.466;2022-11-27T01:04:18;0.00;;;0.00;;
10096;SDS011;5087;42.662;23.466;2022-11-27T01:06:45;0.10;;;0.10;;
10096;SDS011;5087;42.662;23.466;2022-11-27T01:09:14;0.30;;;0.30;;
10096;SDS011;5087;42.662;23.466;2022-11-27T01:11:41;0.00;;;0.00;;
10096;SDS011;5087;42.662;23.466;2022-11-27T01:14:10;0.10;;;0.10;;
10096;SDS011;5087;42.662;23.466;2022-11-27T01:16:43;0.10;;;0.10;;
10096;SDS011;5087;42.662;23.466;2022-11-27T01:19:11;3.87;;;0.93;;
10096;SDS011;5087;42.662;23.466;2022-11-27T01:21:39;0.00;;;0.00;;
10096;SDS011;5087;42.662;23.466;2022-11-27T01:24:07;0.10;;;0.10;;
10096;SDS011;5087;42.662;23.466;2022-11-27T01:26:39;0.30;;;0.30;;
10096;SDS011;5087;42.662;23.466;2022-11-27T01:29:06;0.00;;;0.00;;
10096;SDS011;5087;42.662;23.466;2022-11-27T01:31:38;0.10;;;0.10;;
10096;SDS011;5087;42.662;23.466;2022-11-27T01:34:06;0.10;;;0.10;;
10096;SDS011;5087;42.662;23.466;2022-11-27T01:36:37;0.00;;;0.00;;
10096;SDS011;5087;42.662;23.466;2022-11-27T01:39:05;0.73;;;0.73;;
10096;SDS011;5087;42.662;23.466;2022-11-27T01:41:33;0.10;;;0.10;;
10096;SDS011;5087;42.662;23.466;2022-11-27T01:47:05;1.17;;;1.17;;
10096;SDS011;5087;42.662;23.466;2022-11-27T01:49:38;0.00;;;0.00;;
10096;SDS011;5087;42.662;23.466;2022-11-27T01:52:09;0.10;;;0.10;;
10096;SDS011;5087;42.662;23.466;2022-11-27T01:54:39;0.10;;;0.10;;
10096;SDS011;5087;42.662;23.466;2022-11-27T01:57:11;0.10;;;0.10;;
10096;SDS011;5087;42.662;23.466;2022-11-27T01:59:42;0.10;;;0.10;;
10096;SDS011;5087;42.662;23.466;2022-11-27T02:02:13;0.10;;;0.10;;
10096;SDS011;5087;42.662;23.466;2022-11-27T02:04:40;0.10;;;0.10;;
10096;SDS011;5087;42.662;23.466;2022-11-27T02:07:08;0.40;;;0.40;;
10096;SDS011;5087;42.662;23.466;2022-11-27T02:09:35;2.10;;;0.80;;
10096;SDS011;5087;42.662;23.466;2022-11-27T02:12:06;0.30;;;0.30;;
10096;SDS011;5087;42.662;23.466;2022-11-27T02:14:52;0.10;;;0.10;;
10096;SDS011;5087;42.662;23.466;2022-11-27T02:17:29;0.10;;;0.10;;
10096;SDS011;5087;42.662;23.466;2022-11-27T02:20:18;0.40;;;0.40;;
10096;SDS011;5087;42.662;23.466;2022-11-27T02:22:59;0.10;;;0.10;;
10096;SDS011;5087;42.662;23.466;2022-11-27T02:25:50;0.10;;;0.10;;
10096;SDS011;5087;42.662;23.466;2022-11-27T02:28:36;0.20;;;0.20;;
10096;SDS011;5087;42.662;23.466;2022-11-27T02:31:11;0.40;;;0.40;;
10096;SDS011;5087;42.662;23.466;2022-11-27T02:33:45;0.20;;;0.20;;
10096;SDS011;5087;42.662;23.466;2022-11-27T02:36:18;0.10;;;0.10;;
10096;SDS011;5087;42.662;23.466;2022-11-27T02:38:50;0.00;;;0.00;;
10096;SDS011;5087;42.662;23.466;2022-11-27T02:41:23;0.20;;;0.20;;
10096;SDS011;5087;42.662;23.466;2022-11-27T02:43:54;0.10;;;0.10;;
10096;SDS011;5087;42.662;23.466;2022-11-27T02:46:25;1.70;;;1.60;;
10096;SDS011;5087;42.662;23.466;2022-11-27T02:48:54;0.93;;;0.93;;
10096;SDS011;5087;42.662;23.466;2022-11-27T02:51:24;0.20;;;0.20;;
10096;SDS011;5087;42.662;23.466;2022-11-27T02:53:56;0.10;;;0.10;;
10096;SDS011;5087;42.662;23.466;2022-11-27T02:56:27;0.30;;;0.30;;
10096;SDS011;5087;42.662;23.466;2022-11-27T02:58:58;0.10;;;0.10;;
10096;SDS011;5087;42.662;23.466;2022-11-27T03:01:31;0.20;;;0.20;;
10096;SDS011;5087;42.662;23.466;2022-11-27T03:04:08;0.20;;;0.20;;
10096;SDS011;5087;42.662;23.466;2022-11-27T03:06:40;0.30;;;0.30;;
10096;SDS011;5087;42.662;23.466;2022-11-27T03:09:11;0.20;;;0.20;;
10096;SDS011;5087;42.662;23.466;2022-11-27T03:11:41;0.20;;;0.20;;
10096;SDS011;5087;42.662;23.466;2022-11-27T03:14:09;1.53;;;0.83;;
10096;SDS011;5087;42.662;23.466;2022-11-27T03:16:42;0.20;;;0.20;;
10096;SDS011;5087;42.662;23.466;2022-11-27T03:19:17;0.30;;;0.30;;
10096;SDS011;5087;42.662;23.466;2022-11-27T03:21:49;0.30;;;0.30;;
10096;SDS011;5087;42.662;23.466;2022-11-27T03:24:19;0.40;;;0.40;;
10096;SDS011;5087;42.662;23.466;2022-11-27T03:26:46;0.30;;;0.30;;
10096;SDS011;5087;42.662;23.466;2022-11-27T03:29:15;2.20;;;0.80;;
10096;SDS011;5087;42.662;23.466;2022-11-27T03:31:47;1.60;;;1.50;;
10096;SDS011;5087;42.662;23.466;2022-11-27T03:34:15;0.50;;;0.50;;
10096;SDS011;5087;42.662;23.466;2022-11-27T03:36:45;0.20;;;0.20;;
10096;SDS011;5087;42.662;23.466;2022-11-27T03:39:12;0.30;;;0.30;;
10096;SDS011;5087;42.662;23.466;2022-11-27T03:41:44;0.30;;;0.30;;
10096;SDS011;5087;42.662;23.466;2022-11-27T03:44:19;0.30;;;0.30;;
10096;SDS011;5087;42.662;23.466;2022-11-27T03:49:51;0.30;;;0.30;;
10096;SDS011;5087;42.662;23.466;2022-11-27T03:52:38;0.30;;;0.30;;
10096;SDS011;5087;42.662;23.466;2022-11-27T03:55:11;0.37;;;0.37;;
10096;SDS011;5087;42.662;23.466;2022-11-27T03:57:58;8.93;;;1.17;;
10096;SDS011;5087;42.662;23.466;2022-11-27T04:00:30;0.30;;;0.30;;
10096;SDS011;5087;42.662;23.466;2022-11-27T04:03:02;0.30;;;0.30;;
10096;SDS011;5087;42.662;23.466;2022-11-27T04:05:30;0.30;;;0.30;;
10096;SDS011;5087;42.662;23.466;2022-11-27T04:08:01;0.30;;;0.30;;
10096;SDS011;5087;42.662;23.466;2022-11-27T04:10:28;0.40;;;0.40;;
10096;SDS011;5087;42.662;23.466;2022-11-27T04:12:55;0.40;;;0.40;;
10096;SDS011;5087;42.662;23.466;2022-11-27T04:15:23;0.33;;;0.33;;
10096;SDS011;5087;42.662;23.466;2022-11-27T04:17:50;0.30;;;0.30;;
10096;SDS011;5087;42.662;23.466;2022-11-27T04:20:19;0.40;;;0.40;;
10096;SDS011;5087;42.662;23.466;2022-11-27T04:22:46;0.50;;;0.50;;
10096;SDS011;5087;42.662;23.466;2022-11-27T04:25:13;1.33;;;1.33;;
10096;SDS011;5087;42.662;23.466;2022-11-27T04:27:40;0.40;;;0.40;;
10096;SDS011;5087;42.662;23.466;2022-11-27T04:30:07;0.57;;;0.57;;
10096;SDS011;5087;42.662;23.466;2022-11-27T04:32:35;0.40;;;0.40;;
10096;SDS011;5087;42.662;23.466;2022-11-27T04:35:03;0.30;;;0.30;;
10096;SDS011;5087;42.662;23.466;2022-11-27T04:37:33;0.40;;;0.40;;
10096;SDS011;5087;42.662;23.466;2022-11-27T04:40:00;0.87;;;0.87;;
10096;SDS011;5087;42.662;23.466;2022-11-27T04:42:27;0.53;;;0.53;;
10096;SDS011;5087;42.662;23.466;2022-11-27T04:44:54;0.50;;;0.50;;
10096;SDS011;5087;42.662;23.466;2022-11-27T04:47:22;0.97;;;0.97;;
10096;SDS011;5087;42.662;23.466;2022-11-27T04:49:49;0.60;;;0.60;;
10096;SDS011;5087;42.662;23.466;2022-11-27T04:52:16;0.50;;;0.50;;
10096;SDS011;5087;42.662;23.466;2022-11-27T04:54:45;0.50;;;0.50;;
10096;SDS011;5087;42.662;23.466;2022-11-27T04:57:12;0.80;;;0.80;;
10096;SDS011;5087;42.662;23.466;2022-11-27T04:59:39;0.50;;;0.50;;
10096;SDS011;5087;42.662;23.466;2022-11-27T05:02:06;0.60;;;0.60;;
10096;SDS011;5087;42.662;23.466;2022-11-27T05:04:33;0.90;;;0.90;;
10096;SDS011;5087;42.662;23.466;2022-11-27T05:07:01;0.60;;;0.60;;
10096;SDS011;5087;42.662;23.466;2022-11-27T05:09:28;0.60;;;0.60;;
10096;SDS011;5087;42.662;23.466;2022-11-27T05:11:57;0.50;;;0.50;;
10096;SDS011;5087;42.662;23.466;2022-11-27T05:14:24;0.60;;;0.60;;
10096;SDS011;5087;42.662;23.466;2022-11-27T05:16:54;0.80;;;0.80;;
10096;SDS011;5087;42.662;23.466;2022-11-27T05:19:24;0.60;;;0.60;;
10096;SDS011;5087;42.662;23.466;2022-11-27T05:21:52;5.53;;;1.43;;
10096;SDS011;5087;42.662;23.466;2022-11-27T05:24:20;0.50;;;0.50;;
10096;SDS011;5087;42.662;23.466;2022-11-27T05:26:52;0.43;;;0.43;;
10096;SDS011;5087;42.662;23.466;2022-11-27T05:29:22;0.60;;;0.60;;
10096;SDS011;5087;42.662;23.466;2022-11-27T05:31:50;0.47;;;0.47;;
10096;SDS011;5087;42.662;23.466;2022-11-27T05:34:17;0.80;;;0.80;;
10096;SDS011;5087;42.662;23.466;2022-11-27T05:36:45;0.40;;;0.40;;
10096;SDS011;5087;42.662;23.466;2022-11-27T05:39:12;0.60;;;0.60;;
10096;SDS011;5087;42.662;23.466;2022-11-27T05:41:40;0.40;;;0.40;;
10096;SDS011;5087;42.662;23.466;2022-11-27T05:44:09;0.40;;;0.40;;
10096;SDS011;5087;42.662;23.466;2022-11-27T05:46:39;1.33;;;1.33;;
10096;SDS011;5087;42.662;23.466;2022-11-27T05:49:09;0.40;;;0.40;;
10096;SDS011;5087;42.662;23.466;2022-11-27T05:51:37;0.43;;;0.43;;
10096;SDS011;5087;42.662;23.466;2022-11-27T05:54:05;0.30;;;0.30;;
10096;SDS011;5087;42.662;23.466;2022-11-27T05:56:32;0.20;;;0.20;;
10096;SDS011;5087;42.662;23.466;2022-11-27T05:59:00;1.03;;;1.03;;
10096;SDS011;5087;42.662;23.466;2022-11-27T06:01:27;0.30;;;0.30;;
10096;SDS011;5087;42.662;23.466;2022-11-27T06:03:56;0.30;;;0.30;;
10096;SDS011;5087;42.662;23.466;2022-11-27T06:06:23;0.80;;;0.80;;
10096;SDS011;5087;42.662;23.466;2022-11-27T06:08:51;2.43;;;2.23;;
10096;SDS011;5087;42.662;23.466;2022-11-27T06:11:18;0.57;;;0.57;;
10096;SDS011;5087;42.662;23.466;2022-11-27T06:13:48;0.10;;;0.10;;
10096;SDS011;5087;42.662;23.466;2022-11-27T06:16:16;0.30;;;0.30;;
10096;SDS011;5087;42.662;23.466;2022-11-27T06:18:47;0.20;;;0.20;;
10096;SDS011;5087;42.662;23.466;2022-11-27T06:21:17;0.10;;;0.10;;
10096;SDS011;5087;42.662;23.466;2022-11-27T06:23:45;1.80;;;0.93;;
10096;SDS011;5087;42.662;23.466;2022-11-27T06:26:16;0.40;;;0.40;;
10096;SDS011;5087;42.662;23.466;2022-11-27T06:28:46;0.87;;;0.87;;
10096;SDS011;5087;42.662;23.466;2022-11-27T06:31:15;2.53;;;1.13;;
10096;SDS011;5087;42.662;23.466;2022-11-27T06:33:43;0.50;;;0.50;;
10096;SDS011;5087;42.662;23.466;2022-11-27T06:36:11;0.73;;;0.73;;
10096;SDS011;5087;42.662;23.466;2022-11-27T06:38:39;0.20;;;0.20;;
10096;SDS011;5087;42.662;23.466;2022-11-27T06:41:07;2.10;;;2.00;;
10096;SDS011;5087;42.662;23.466;2022-11-27T06:43:36;0.70;;;0.70;;
10096;SDS011;5087;42.662;23.466;2022-11-27T06:46:04;0.97;;;0.97;;
10096;SDS011;5087;42.662;23.466;2022-11-27T06:48:33;0.67;;;0.67;;
10096;SDS011;5087;42.662;23.466;2022-11-27T06:51:00;0.83;;;0.83;;
10096;SDS011;5087;42.662;23.466;2022-11-27T06:53:28;2.10;;;1.60;;
10096;SDS011;5087;42.662;23.466;2022-11-27T06:56:00;0.47;;;0.47;;
10096;SDS011;5087;42.662;23.466;2022-11-27T06:58:31;0.77;;;0.77;;
10096;SDS011;5087;42.662;23.466;2022-11-27T07:00:59;0.10;;;0.10;;
10096;SDS011;5087;42.662;23.466;2022-11-27T07:03:26;0.10;;;0.10;;
10096;SDS011;5087;42.662;23.466;2022-11-27T07:05:57;0.57;;;0.57;;
10096;SDS011;5087;42.662;23.466;2022-11-27T07:08:25;0.57;;;0.57;;
10096;SDS011;5087;42.662;23.466;2022-11-27T07:10:52;0.47;;;0.47;;
10096;SDS011;5087;42.662;23.466;2022-11-27T07:13:21;0.20;;;0.20;;
10096;SDS011;5087;42.662;23.466;2022-11-27T07:15:48;0.73;;;0.73;;
10096;SDS011;5087;42.662;23.466;2022-11-27T07:18:15;0.00;;;0.00;;
10096;SDS011;5087;42.662;23.466;2022-11-27T07:20:49;0.10;;;0.10;;
10096;SDS011;5087;42.662;23.466;2022-11-27T07:23:17;0.10;;;0.10;;
10096;SDS011;5087;42.662;23.466;2022-11-27T07:25:44;0.10;;;0.10;;
10096;SDS011;5087;42.662;23.466;2022-11-27T07:28:11;0.10;;;0.10;;
10096;SDS011;5087;42.662;23.466;2022-11-27T07:30:40;0.10;;;0.10;;
10096;SDS011;5087;42.662;23.466;2022-11-27T07:33:07;0.57;;;0.57;;
10096;SDS011;5087;42.662;23.466;2022-11-27T07:35:41;0.10;;;0.10;;
10096;SDS011;5087;42.662;23.466;2022-11-27T07:38:08;0.20;;;0.20;;
10096;SDS011;5087;42.662;23.466;2022-11-27T07:40:36;0.20;;;0.20;;
10096;SDS011;5087;42.662;23.466;2022-11-27T07:43:07;0.93;;;0.93;;
10096;SDS011;5087;42.662;23.466;2022-11-27T07:45:34;0.40;;;0.40;;
10096;SDS011;5087;42.662;23.466;2022-11-27T07:48:04;0.20;;;0.20;;
10096;SDS011;5087;42.662;23.466;2022-11-27T07:50:31;0.23;;;0.23;;
10096;SDS011;5087;42.662;23.466;2022-11-27T07:52:59;0.30;;;0.30;;
10096;SDS011;5087;42.662;23.466;2022-11-27T07:55:26;0.53;;;0.53;;
10096;SDS011;5087;42.662;23.466;2022-11-27T07:57:53;0.40;;;0.40;;
10096;SDS011;5087;42.662;23.466;2022-11-27T08:00:20;1.23;;;1.23;;
10096;SDS011;5087;42.662;23.466;2022-11-27T08:02:47;0.70;;;0.70;;
10096;SDS011;5087;42.662;23.466;2022-11-27T08:05:17;0.60;;;0.60;;
10096;SDS011;5087;42.662;23.466;2022-11-27T08:07:44;0.70;;;0.70;;
10096;SDS011;5087;42.662;23.466;2022-11-27T08:10:11;0.73;;;0.73;;
10096;SDS011;5087;42.662;23.466;2022-11-27T08:12:38;0.80;;;0.80;;
10096;SDS011;5087;42.662;23.466;2022-11-27T08:15:06;1.10;;;1.10;;
10096;SDS011;5087;42.662;23.466;2022-11-27T08:17:34;1.17;;;1.17;;
10096;SDS011;5087;42.662;23.466;2022-11-27T08:20:02;0.83;;;0.83;;
10096;SDS011;5087;42.662;23.466;2022-11-27T08:22:31;0.90;;;0.90;;
10096;SDS011;5087;42.662;23.466;2022-11-27T08:24:59;0.90;;;0.90;;
10096;SDS011;5087;42.662;23.466;2022-11-27T08:27:26;0.90;;;0.90;;
10096;SDS011;5087;42.662;23.466;2022-11-27T08:29:59;0.80;;;0.80;;
10096;SDS011;5087;42.662;23.466;2022-11-27T08:32:26;0.80;;;0.80;;
10096;SDS011;5087;42.662;23.466;2022-11-27T08:34:53;0.90;;;0.90;;
10096;SDS011;5087;42.662;23.466;2022-11-27T08:37:21;1.00;;;1.00;;
10096;SDS011;5087;42.662;23.466;2022-11-27T08:39:50;0.90;;;0.90;;
10096;SDS011;5087;42.662;23.466;2022-11-27T08:42:17;0.70;;;0.70;;
10096;SDS011;5087;42.662;23.466;2022-11-27T08:44:44;0.80;;;0.80;;
10096;SDS011;5087;42.662;23.466;2022-11-27T08:47:12;0.80;;;0.80;;
10096;SDS011;5087;42.662;23.466;2022-11-27T08:49:41;1.20;;;1.20;;
10096;SDS011;5087;42.662;23.466;2022-11-27T08:52:11;1.10;;;1.10;;
10096;SDS011;5087;42.662;23.466;2022-11-27T08:54:39;1.17;;;1.17;;
10096;SDS011;5087;42.662;23.466;2022-11-27T08:57:08;1.00;;;1.00;;
10096;SDS011;5087;42.662;23.466;2022-11-27T08:59:38;0.93;;;0.93;;
10096;SDS011;5087;42.662;23.466;2022-11-27T09:02:05;1.20;;;1.20;;
10096;SDS011;5087;42.662;23.466;2022-11-27T09:04:36;1.30;;;1.30;;
10096;SDS011;5087;42.662;23.466;2022-11-27T09:07:03;1.30;;;1.30;;
10096;SDS011;5087;42.662;23.466;2022-11-27T09:09:30;1.63;;;1.63;;
10096;SDS011;5087;42.662;23.466;2022-11-27T09:11:57;1.50;;;1.50;;
10096;SDS011;5087;42.662;23.466;2022-11-27T09:14:26;1.50;;;1.50;;
10096;SDS011;5087;42.662;23.466;2022-11-27T09:16:54;1.40;;;1.40;;
10096;SDS011;5087;42.662;23.466;2022-11-27T09:19:20;1.30;;;1.30;;
10096;SDS011;5087;42.662;23.466;2022-11-27T09:21:48;1.30;;;1.30;;
10096;SDS011;5087;42.662;23.466;2022-11-27T09:24:15;1.10;;;1.10;;
10096;SDS011;5087;42.662;23.466;2022-11-27T09:26:43;1.20;;;1.20;;
10096;SDS011;5087;42.662;23.466;2022-11-27T09:29:10;1.50;;;1.50;;
10096;SDS011;5087;42.662;23.466;2022-11-27T09:31:38;1.20;;;1.20;;
10096;SDS011;5087;42.662;23.466;2022-11-27T09:34:06;1.30;;;1.30;;
10096;SDS011;5087;42.662;23.466;2022-11-27T09:36:33;3.00;;;2.90;;
10096;SDS011;5087;42.662;23.466;2022-11-27T09:39:00;1.30;;;1.30;;
10096;SDS011;5087;42.662;23.466;2022-11-27T09:41:39;1.20;;;1.20;;
10096;SDS011;5087;42.662;23.466;2022-11-27T09:44:20;1.20;;;1.20;;
10096;SDS011;5087;42.662;23.466;2022-11-27T09:46:54;1.40;;;1.40;;
10096;SDS011;5087;42.662;23.466;2022-11-27T09:49:26;1.47;;;1.47;;
10096;SDS011;5087;42.662;23.466;2022-11-27T09:51:58;1.50;;;1.50;;
10096;SDS011;5087;42.662;23.466;2022-11-27T09:54:30;1.97;;;1.97;;
10096;SDS011;5087;42.662;23.466;2022-11-27T09:57:02;1.70;;;1.70;;
10096;SDS011;5087;42.662;23.466;2022-11-27T09:59:32;1.80;;;1.80;;
10096;SDS011;5087;42.662;23.466;2022-11-27T10:02:13;1.97;;;1.97;;
10096;SDS011;5087;42.662;23.466;2022-11-27T10:04:42;2.00;;;2.00;;
10096;SDS011;5087;42.662;23.466;2022-11-27T10:07:24;2.30;;;2.30;;
10096;SDS011;5087;42.662;23.466;2022-11-27T10:10:14;2.10;;;2.10;;
10096;SDS011;5087;42.662;23.466;2022-11-27T10:12:57;2.10;;;2.10;;
10096;SDS011;5087;42.662;23.466;2022-11-27T10:15:36;1.90;;;1.90;;
10096;SDS011;5087;42.662;23.466;2022-11-27T10:18:13;2.00;;;2.00;;
10096;SDS011;5087;42.662;23.466;2022-11-27T10:20:46;1.60;;;1.60;;
10096;SDS011;5087;42.662;23.466;2022-11-27T10:23:19;1.60;;;1.60;;
10096;SDS011;5087;42.662;23.466;2022-11-27T10:25:57;1.80;;;1.80;;
10096;SDS011;5087;42.662;23.466;2022-11-27T10:28:30;1.93;;;1.93;;
10096;SDS011;5087;42.662;23.466;2022-11-27T10:31:08;2.17;;;2.17;;
10096;SDS011;5087;42.662;23.466;2022-11-27T10:33:41;2.10;;;2.10;;
10096;SDS011;5087;42.662;23.466;2022-11-27T10:36:13;2.73;;;2.73;;
10096;SDS011;5087;42.662;23.466;2022-11-27T10:38:41;2.40;;;2.40;;
10096;SDS011;5087;42.662;23.466;2022-11-27T10:41:10;2.70;;;2.70;;
10096;SDS011;5087;42.662;23.466;2022-11-27T10:43:43;2.63;;;2.63;;
10096;SDS011;5087;42.662;23.466;2022-11-27T10:46:15;2.60;;;2.60;;
10096;SDS011;5087;42.662;23.466;2022-11-27T10:48:49;2.50;;;2.50;;
10096;SDS011;5087;42.662;23.466;2022-11-27T10:51:18;2.30;;;2.30;;
10096;SDS011;5087;42.662;23.466;2022-11-27T10:53:49;2.20;;;2.20;;
10096;SDS011;5087;42.662;23.466;2022-11-27T10:59:22;2.20;;;2.20;;
10096;SDS011;5087;42.662;23.466;2022-11-27T11:01:54;2.27;;;2.27;;
10096;SDS011;5087;42.662;23.466;2022-11-27T11:04:26;2.10;;;2.10;;
10096;SDS011;5087;42.662;23.466;2022-11-27T11:06:58;2.10;;;2.10;;
10096;SDS011;5087;42.662;23.466;2022-11-27T11:09:27;2.00;;;2.00;;
10096;SDS011;5087;42.662;23.466;2022-11-27T11:12:04;2.10;;;2.10;;
10096;SDS011;5087;42.662;23.466;2022-11-27T11:14:32;2.10;;;2.10;;
10096;SDS011;5087;42.662;23.466;2022-11-27T11:17:00;2.00;;;2.00;;
10096;SDS011;5087;42.662;23.466;2022-11-27T11:19:41;2.00;;;2.00;;
10096;SDS011;5087;42.662;23.466;2022-11-27T11:22:11;2.20;;;2.20;;
10096;SDS011;5087;42.662;23.466;2022-11-27T11:24:43;2.30;;;2.30;;
10096;SDS011;5087;42.662;23.466;2022-11-27T11:27:15;2.50;;;2.50;;
10096;SDS011;5087;42.662;23.466;2022-11-27T11:29:47;3.10;;;3.10;;
10096;SDS011;5087;42.662;23.466;2022-11-27T11:32:20;3.10;;;3.03;;
10096;SDS011;5087;42.662;23.466;2022-11-27T11:34:53;2.80;;;2.80;;
10096;SDS011;5087;42.662;23.466;2022-11-27T11:37:22;2.97;;;2.97;;
10096;SDS011;5087;42.662;23.466;2022-11-27T11:39:54;2.90;;;2.90;;
10096;SDS011;5087;42.662;23.466;2022-11-27T11:42:24;2.90;;;2.90;;
10096;SDS011;5087;42.662;23.466;2022-11-27T11:44:54;3.00;;;3.00;;
10096;SDS011;5087;42.662;23.466;2022-11-27T11:47:28;3.40;;;3.30;;
10096;SDS011;5087;42.662;23.466;2022-11-27T11:49:57;3.00;;;3.00;;
10096;SDS011;5087;42.662;23.466;2022-11-27T11:52:28;3.10;;;3.10;;
10096;SDS011;5087;42.662;23.466;2022-11-27T11:55:09;3.10;;;3.10;;
10096;SDS011;5087;42.662;23.466;2022-11-27T11:57:50;3.10;;;3.10;;
10096;SDS011;5087;42.662;23.466;2022-11-27T12:00:39;3.40;;;3.40;;
10096;SDS011;5087;42.662;23.466;2022-11-27T12:03:16;4.10;;;4.00;;
10096;SDS011;5087;42.662;23.466;2022-11-27T12:06:02;4.30;;;4.20;;
10096;SDS011;5087;42.662;23.466;2022-11-27T12:08:48;6.17;;;5.80;;
10096;SDS011;5087;42.662;23.466;2022-11-27T12:11:27;3.27;;;3.27;;
10096;SDS011;5087;42.662;23.466;2022-11-27T12:14:04;3.83;;;3.70;;
10096;SDS011;5087;42.662;23.466;2022-11-27T12:16:42;2.90;;;2.90;;
10096;SDS011;5087;42.662;23.466;2022-11-27T12:19:27;4.07;;;3.90;;
10096;SDS011;5087;42.662;23.466;2022-11-27T12:22:11;2.93;;;2.93;;
10096;SDS011;5087;42.662;23.466;2022-11-27T12:24:49;2.70;;;2.70;;
10096;SDS011;5087;42.662;23.466;2022-11-27T12:27:30;2.70;;;2.70;;
10096;SDS011;5087;42.662;23.466;2022-11-27T12:30:07;2.90;;;2.90;;
10096;SDS011;5087;42.662;23.466;2022-11-27T12:32:52;2.90;;;2.90;;
10096;SDS011;5087;42.662;23.466;2022-11-27T12:35:42;4.50;;;4.30;;
10096;SDS011;5087;42.662;23.466;2022-11-27T12:41:13;2.80;;;2.80;;
10096;SDS011;5087;42.662;23.466;2022-11-27T12:43:52;4.27;;;3.87;;
10096;SDS011;5087;42.662;23.466;2022-11-27T12:46:26;3.07;;;3.07;;
10096;SDS011;5087;42.662;23.466;2022-11-27T12:48:57;3.13;;;3.13;;
10096;SDS011;5087;42.662;23.466;2022-11-27T12:51:30;5.60;;;5.43;;
10096;SDS011;5087;42.662;23.466;2022-11-27T12:54:08;5.23;;;4.93;;
10096;SDS011;5087;42.662;23.466;2022-11-27T12:56:41;3.00;;;3.00;;
10096;SDS011;5087;42.662;23.466;2022-11-27T12:59:14;3.00;;;3.00;;
10096;SDS011;5087;42.662;23.466;2022-11-27T13:01:47;2.70;;;2.70;;
10096;SDS011;5087;42.662;23.466;2022-11-27T13:04:22;3.63;;;3.53;;
10096;SDS011;5087;42.662;23.466;2022-11-27T13:06:54;2.73;;;2.73;;
10096;SDS011;5087;42.662;23.466;2022-11-27T13:09:34;2.53;;;2.53;;
10096;SDS011;5087;42.662;23.466;2022-11-27T13:12:08;2.70;;;2.70;;
10096;SDS011;5087;42.662;23.466;2022-11-27T13:14:39;3.83;;;3.73;;
10096;SDS011;5087;42.662;23.466;2022-11-27T13:17:10;2.80;;;2.80;;
10096;SDS011;5087;42.662;23.466;2022-11-27T13:19:44;2.50;;;2.50;;
10096;SDS011;5087;42.662;23.466;2022-11-27T13:22:15;2.90;;;2.90;;
10096;SDS011;5087;42.662;23.466;2022-11-27T13:24:53;2.47;;;2.47;;
10096;SDS011;5087;42.662;23.466;2022-11-27T13:27:22;2.60;;;2.60;;
10096;SDS011;5087;42.662;23.466;2022-11-27T13:29:53;2.60;;;2.60;;
10096;SDS011;5087;42.662;23.466;2022-11-27T13:32:25;2.90;;;2.90;;
10096;SDS011;5087;42.662;23.466;2022-11-27T13:34:55;2.87;;;2.87;;
10096;SDS011;5087;42.662;23.466;2022-11-27T13:37:26;2.60;;;2.60;;
10096;SDS011;5087;42.662;23.466;2022-11-27T13:40:04;2.70;;;2.70;;
10096;SDS011;5087;42.662;23.466;2022-11-27T13:42:42;2.60;;;2.60;;
10096;SDS011;5087;42.662;23.466;2022-11-27T13:45:16;2.50;;;2.50;;
10096;SDS011;5087;42.662;23.466;2022-11-27T13:47:48;2.20;;;2.20;;
10096;SDS011;5087;42.662;23.466;2022-11-27T13:50:18;2.70;;;2.70;;
10096;SDS011;5087;42.662;23.466;2022-11-27T13:52:51;2.40;;;2.40;;
10096;SDS011;5087;42.662;23.466;2022-11-27T13:55:25;2.50;;;2.50;;
10096;SDS011;5087;42.662;23.466;2022-11-27T13:57:54;2.40;;;2.40;;
10096;SDS011;5087;42.662;23.466;2022-11-27T14:00:30;3.30;;;3.20;;
10096;SDS011;5087;42.662;23.466;2022-11-27T14:03:02;2.80;;;2.80;;
10096;SDS011;5087;42.662;23.466;2022-11-27T14:05:34;2.50;;;2.50;;
10096;SDS011;5087;42.662;23.466;2022-11-27T14:08:18;3.00;;;3.00;;
10096;SDS011;5087;42.662;23.466;2022-11-27T14:10:52;3.10;;;3.10;;
10096;SDS011;5087;42.662;23.466;2022-11-27T14:13:34;3.00;;;3.00;;
10096;SDS011;5087;42.662;23.466;2022-11-27T14:16:08;3.20;;;3.20;;
10096;SDS011;5087;42.662;23.466;2022-11-27T14:18:48;3.00;;;3.00;;
10096;SDS011;5087;42.662;23.466;2022-11-27T14:21:22;3.30;;;3.30;;
10096;SDS011;5087;42.662;23.466;2022-11-27T14:23:52;3.23;;;3.23;;
10096;SDS011;5087;42.662;23.466;2022-11-27T14:26:22;3.10;;;3.10;;
10096;SDS011;5087;42.662;23.466;2022-11-27T14:28:51;2.90;;;2.90;;
10096;SDS011;5087;42.662;23.466;2022-11-27T14:31:25;3.10;;;3.10;;
10096;SDS011;5087;42.662;23.466;2022-11-27T14:33:55;3.83;;;3.73;;
10096;SDS011;5087;42.662;23.466;2022-11-27T14:36:27;6.43;;;5.80;;
10096;SDS011;5087;42.662;23.466;2022-11-27T14:38:56;4.60;;;4.50;;
10096;SDS011;5087;42.662;23.466;2022-11-27T14:41:25;3.50;;;3.50;;
10096;SDS011;5087;42.662;23.466;2022-11-27T14:43:58;7.43;;;6.70;;
10096;SDS011;5087;42.662;23.466;2022-11-27T14:46:26;4.80;;;4.70;;
10096;SDS011;5087;42.662;23.466;2022-11-27T14:48:57;6.43;;;6.13;;
10096;SDS011;5087;42.662;23.466;2022-11-27T14:51:26;3.10;;;3.10;;
10096;SDS011;5087;42.662;23.466;2022-11-27T14:53:57;3.23;;;3.23;;
10096;SDS011;5087;42.662;23.466;2022-11-27T14:56:30;3.20;;;3.20;;
10096;SDS011;5087;42.662;23.466;2022-11-27T14:58:59;3.10;;;3.10;;
10096;SDS011;5087;42.662;23.466;2022-11-27T15:01:28;4.93;;;4.73;;
10096;SDS011;5087;42.662;23.466;2022-11-27T15:04:03;3.30;;;3.30;;
10096;SDS011;5087;42.662;23.466;2022-11-27T15:06:33;3.20;;;3.20;;
10096;SDS011;5087;42.662;23.466;2022-11-27T15:09:02;3.50;;;3.50;;
10096;SDS011;5087;42.662;23.466;2022-11-27T15:11:31;3.30;;;3.30;;
10096;SDS011;5087;42.662;23.466;2022-11-27T15:13:59;3.20;;;3.20;;
10096;SDS011;5087;42.662;23.466;2022-11-27T15:16:29;3.20;;;3.20;;
10096;SDS011;5087;42.662;23.466;2022-11-27T15:18:58;4.80;;;4.60;;
10096;SDS011;5087;42.662;23.466;2022-11-27T15:21:28;3.70;;;3.60;;